sensor_id;sensor_type;location;lat;lon;timestamp;P1;durP1;ratioP1;P2;durP2;ratioP2
70487;SDS011;57976;48.174;16.370;2024-01-11T00:01:22;31.90;;;13.50;;
70487;SDS011;57976;48.174;16.370;2024-01-11T00:03:27;31.70;;;13.40;;
70487;SDS011;57976;48.174;16.370;2024-01-11T00:05:32;29.30;;;13.30;;
70487;SDS011;57976;48.174;16.370;2024-01-11T00:07:37;32.30;;;13.90;;
70487;SDS011;57976;48.174;16.370;2024-01-11T00:09:42;30.40;;;13.70;;
70487;SDS011;57976;48.174;16.370;2024-01-11T00:11:47;30.70;;;14.30;;
70487;SDS011;57976;48.174;16.370;2024-01-11T00:13:52;31.30;;;14.30;;
70487;SDS011;57976;48.174;16.370;2024-01-11T00:15:57;31.90;;;13.80;;
70487;SDS011;57976;48.174;16.370;2024-01-11T00:18:01;30.30;;;13.90;;
70487;SDS011;57976;48.174;16.370;2024-01-11T00:20:08;30.40;;;13.80;;
70487;SDS011;57976;48.174;16.370;2024-01-11T00:22:13;31.60;;;14.30;;
70487;SDS011;57976;48.174;16.370;2024-01-11T00:24:19;33.50;;;14.20;;
70487;SDS011;57976;48.174;16.370;2024-01-11T00:26:23;33.20;;;14.80;;
70487;SDS011;57976;48.174;16.370;2024-01-11T00:28:28;31.10;;;13.90;;
70487;SDS011;57976;48.174;16.370;2024-01-11T00:30:36;30.60;;;13.70;;
70487;SDS011;57976;48.174;16.370;2024-01-11T00:32:41;34.00;;;14.50;;
70487;SDS011;57976;48.174;16.370;2024-01-11T00:34:45;33.30;;;15.00;;
70487;SDS011;57976;48.174;16.370;2024-01-11T00:36:50;32.90;;;14.10;;
70487;SDS011;57976;48.174;16.370;2024-01-11T00:38:55;32.60;;;13.60;;
70487;SDS011;57976;48.174;16.370;2024-01-11T00:40:59;32.30;;;13.90;;
70487;SDS011;57976;48.174;16.370;2024-01-11T00:43:04;33.40;;;15.30;;
70487;SDS011;57976;48.174;16.370;2024-01-11T00:45:09;31.00;;;14.00;;
70487;SDS011;57976;48.174;16.370;2024-01-11T00:47:14;30.60;;;14.30;;
70487;SDS011;57976;48.174;16.370;2024-01-11T00:49:19;32.50;;;13.80;;
70487;SDS011;57976;48.174;16.370;2024-01-11T00:51:23;32.70;;;14.90;;
70487;SDS011;57976;48.174;16.370;2024-01-11T00:53:28;34.20;;;14.90;;
70487;SDS011;57976;48.174;16.370;2024-01-11T00:55:33;35.60;;;15.60;;
70487;SDS011;57976;48.174;16.370;2024-01-11T00:57:37;33.50;;;14.80;;
70487;SDS011;57976;48.174;16.370;2024-01-11T00:59:42;33.40;;;14.60;;
70487;SDS011;57976;48.174;16.370;2024-01-11T01:01:48;35.50;;;15.90;;
70487;SDS011;57976;48.174;16.370;2024-01-11T01:03:53;32.40;;;14.80;;
70487;SDS011;57976;48.174;16.370;2024-01-11T01:05:58;35.90;;;15.10;;
70487;SDS011;57976;48.174;16.370;2024-01-11T01:08:03;36.00;;;16.20;;
70487;SDS011;57976;48.174;16.370;2024-01-11T01:10:08;32.70;;;14.60;;
70487;SDS011;57976;48.174;16.370;2024-01-11T01:12:13;34.50;;;15.00;;
70487;SDS011;57976;48.174;16.370;2024-01-11T01:14:17;37.60;;;16.00;;
70487;SDS011;57976;48.174;16.370;2024-01-11T01:16:22;32.60;;;15.30;;
70487;SDS011;57976;48.174;16.370;2024-01-11T01:18:27;35.60;;;15.20;;
70487;SDS011;57976;48.174;16.370;2024-01-11T01:20:32;35.70;;;15.10;;
70487;SDS011;57976;48.174;16.370;2024-01-11T01:22:37;34.80;;;15.20;;
70487;SDS011;57976;48.174;16.370;2024-01-11T01:24:42;34.30;;;15.00;;
70487;SDS011;57976;48.174;16.370;2024-01-11T01:26:47;35.00;;;15.40;;
70487;SDS011;57976;48.174;16.370;2024-01-11T01:28:52;34.00;;;14.60;;
70487;SDS011;57976;48.174;16.370;2024-01-11T01:30:57;32.90;;;14.90;;
70487;SDS011;57976;48.174;16.370;2024-01-11T01:33:02;33.40;;;14.20;;
70487;SDS011;57976;48.174;16.370;2024-01-11T01:35:07;35.00;;;14.40;;
70487;SDS011;57976;48.174;16.370;2024-01-11T01:37:12;32.90;;;14.70;;
70487;SDS011;57976;48.174;16.370;2024-01-11T01:39:17;33.70;;;14.70;;
70487;SDS011;57976;48.174;16.370;2024-01-11T01:41:22;34.50;;;15.10;;
70487;SDS011;57976;48.174;16.370;2024-01-11T01:43:26;33.70;;;14.70;;
70487;SDS011;57976;48.174;16.370;2024-01-11T01:45:31;31.70;;;14.80;;
70487;SDS011;57976;48.174;16.370;2024-01-11T01:47:35;33.50;;;15.00;;
70487;SDS011;57976;48.174;16.370;2024-01-11T01:49:43;32.90;;;13.90;;
70487;SDS011;57976;48.174;16.370;2024-01-11T01:51:54;33.40;;;14.50;;
70487;SDS011;57976;48.174;16.370;2024-01-11T01:53:59;34.40;;;14.60;;
70487;SDS011;57976;48.174;16.370;2024-01-11T01:56:05;35.20;;;15.40;;
70487;SDS011;57976;48.174;16.370;2024-01-11T01:58:11;34.80;;;15.40;;
70487;SDS011;57976;48.174;16.370;2024-01-11T02:00:17;35.60;;;15.70;;
70487;SDS011;57976;48.174;16.370;2024-01-11T02:02:22;32.90;;;14.80;;
70487;SDS011;57976;48.174;16.370;2024-01-11T02:04:27;33.30;;;15.40;;
70487;SDS011;57976;48.174;16.370;2024-01-11T02:06:32;36.70;;;15.60;;
70487;SDS011;57976;48.174;16.370;2024-01-11T02:08:38;33.10;;;14.80;;
70487;SDS011;57976;48.174;16.370;2024-01-11T02:10:45;33.50;;;14.80;;
70487;SDS011;57976;48.174;16.370;2024-01-11T02:12:50;33.70;;;14.60;;
70487;SDS011;57976;48.174;16.370;2024-01-11T02:14:55;33.20;;;14.50;;
70487;SDS011;57976;48.174;16.370;2024-01-11T02:17:00;33.40;;;14.80;;
70487;SDS011;57976;48.174;16.370;2024-01-11T02:19:05;37.50;;;14.90;;
70487;SDS011;57976;48.174;16.370;2024-01-11T02:21:15;35.90;;;15.10;;
70487;SDS011;57976;48.174;16.370;2024-01-11T02:23:21;35.30;;;15.10;;
70487;SDS011;57976;48.174;16.370;2024-01-11T02:25:27;31.30;;;13.60;;
70487;SDS011;57976;48.174;16.370;2024-01-11T02:27:32;34.70;;;15.00;;
70487;SDS011;57976;48.174;16.370;2024-01-11T02:29:49;33.70;;;14.10;;
70487;SDS011;57976;48.174;16.370;2024-01-11T02:31:53;32.80;;;14.40;;
70487;SDS011;57976;48.174;16.370;2024-01-11T02:33:59;32.00;;;13.70;;
70487;SDS011;57976;48.174;16.370;2024-01-11T02:36:04;31.20;;;13.60;;
70487;SDS011;57976;48.174;16.370;2024-01-11T02:38:09;35.70;;;16.00;;
70487;SDS011;57976;48.174;16.370;2024-01-11T02:40:14;35.40;;;15.30;;
70487;SDS011;57976;48.174;16.370;2024-01-11T02:42:18;32.80;;;14.50;;
70487;SDS011;57976;48.174;16.370;2024-01-11T02:44:23;33.30;;;14.60;;
70487;SDS011;57976;48.174;16.370;2024-01-11T02:46:28;31.10;;;13.60;;
70487;SDS011;57976;48.174;16.370;2024-01-11T02:48:36;33.10;;;15.10;;
70487;SDS011;57976;48.174;16.370;2024-01-11T02:50:41;33.30;;;15.40;;
70487;SDS011;57976;48.174;16.370;2024-01-11T02:52:49;34.10;;;14.80;;
70487;SDS011;57976;48.174;16.370;2024-01-11T02:54:53;31.60;;;13.90;;
70487;SDS011;57976;48.174;16.370;2024-01-11T02:56:58;31.30;;;14.20;;
70487;SDS011;57976;48.174;16.370;2024-01-11T02:59:03;32.70;;;14.60;;
70487;SDS011;57976;48.174;16.370;2024-01-11T03:01:08;32.60;;;14.40;;
70487;SDS011;57976;48.174;16.370;2024-01-11T03:03:15;32.20;;;13.70;;
70487;SDS011;57976;48.174;16.370;2024-01-11T03:05:20;35.10;;;14.70;;
70487;SDS011;57976;48.174;16.370;2024-01-11T03:07:25;34.90;;;14.90;;
70487;SDS011;57976;48.174;16.370;2024-01-11T03:09:29;30.10;;;13.20;;
70487;SDS011;57976;48.174;16.370;2024-01-11T03:11:34;30.80;;;13.90;;
70487;SDS011;57976;48.174;16.370;2024-01-11T03:13:38;31.20;;;13.60;;
70487;SDS011;57976;48.174;16.370;2024-01-11T03:15:43;31.10;;;12.90;;
70487;SDS011;57976;48.174;16.370;2024-01-11T03:17:49;27.70;;;12.50;;
70487;SDS011;57976;48.174;16.370;2024-01-11T03:19:57;31.30;;;12.60;;
70487;SDS011;57976;48.174;16.370;2024-01-11T03:22:02;29.60;;;13.20;;
70487;SDS011;57976;48.174;16.370;2024-01-11T03:24:06;32.80;;;13.70;;
70487;SDS011;57976;48.174;16.370;2024-01-11T03:26:15;30.50;;;13.90;;
70487;SDS011;57976;48.174;16.370;2024-01-11T03:28:20;32.20;;;13.30;;
70487;SDS011;57976;48.174;16.370;2024-01-11T03:30:26;30.60;;;13.60;;
70487;SDS011;57976;48.174;16.370;2024-01-11T03:32:31;32.60;;;13.20;;
70487;SDS011;57976;48.174;16.370;2024-01-11T03:34:36;31.40;;;13.60;;
70487;SDS011;57976;48.174;16.370;2024-01-11T03:36:41;32.30;;;13.40;;
70487;SDS011;57976;48.174;16.370;2024-01-11T03:38:45;30.40;;;13.00;;
70487;SDS011;57976;48.174;16.370;2024-01-11T03:40:55;30.60;;;13.30;;
70487;SDS011;57976;48.174;16.370;2024-01-11T03:42:59;33.60;;;14.00;;
70487;SDS011;57976;48.174;16.370;2024-01-11T03:45:05;30.10;;;13.40;;
70487;SDS011;57976;48.174;16.370;2024-01-11T03:47:10;30.30;;;13.00;;
70487;SDS011;57976;48.174;16.370;2024-01-11T03:49:15;27.80;;;12.40;;
70487;SDS011;57976;48.174;16.370;2024-01-11T03:51:20;30.40;;;12.90;;
70487;SDS011;57976;48.174;16.370;2024-01-11T03:53:25;30.90;;;13.60;;
70487;SDS011;57976;48.174;16.370;2024-01-11T03:55:29;29.40;;;13.00;;
70487;SDS011;57976;48.174;16.370;2024-01-11T03:57:34;27.90;;;12.80;;
70487;SDS011;57976;48.174;16.370;2024-01-11T03:59:39;30.90;;;13.40;;
70487;SDS011;57976;48.174;16.370;2024-01-11T04:01:44;30.20;;;13.40;;
70487;SDS011;57976;48.174;16.370;2024-01-11T04:03:50;29.40;;;12.60;;
70487;SDS011;57976;48.174;16.370;2024-01-11T04:05:54;30.30;;;12.70;;
70487;SDS011;57976;48.174;16.370;2024-01-11T04:07:59;29.90;;;12.60;;
70487;SDS011;57976;48.174;16.370;2024-01-11T04:10:06;30.70;;;13.00;;
70487;SDS011;57976;48.174;16.370;2024-01-11T04:12:11;31.60;;;13.50;;
70487;SDS011;57976;48.174;16.370;2024-01-11T04:14:16;31.30;;;12.90;;
70487;SDS011;57976;48.174;16.370;2024-01-11T04:16:24;30.40;;;13.30;;
70487;SDS011;57976;48.174;16.370;2024-01-11T04:18:29;30.70;;;13.60;;
70487;SDS011;57976;48.174;16.370;2024-01-11T04:20:34;29.00;;;13.00;;
70487;SDS011;57976;48.174;16.370;2024-01-11T04:22:39;29.40;;;12.60;;
70487;SDS011;57976;48.174;16.370;2024-01-11T04:24:43;29.20;;;12.50;;
70487;SDS011;57976;48.174;16.370;2024-01-11T04:26:48;30.20;;;13.00;;
70487;SDS011;57976;48.174;16.370;2024-01-11T04:28:53;30.30;;;13.10;;
70487;SDS011;57976;48.174;16.370;2024-01-11T04:31:05;28.60;;;13.00;;
70487;SDS011;57976;48.174;16.370;2024-01-11T04:33:10;33.40;;;14.80;;
70487;SDS011;57976;48.174;16.370;2024-01-11T04:35:15;33.20;;;14.50;;
70487;SDS011;57976;48.174;16.370;2024-01-11T04:37:20;30.20;;;12.90;;
70487;SDS011;57976;48.174;16.370;2024-01-11T04:39:26;30.00;;;12.90;;
70487;SDS011;57976;48.174;16.370;2024-01-11T04:41:31;31.40;;;13.90;;
70487;SDS011;57976;48.174;16.370;2024-01-11T04:43:38;33.00;;;14.80;;
70487;SDS011;57976;48.174;16.370;2024-01-11T04:45:43;30.10;;;13.20;;
70487;SDS011;57976;48.174;16.370;2024-01-11T04:47:47;33.70;;;14.20;;
70487;SDS011;57976;48.174;16.370;2024-01-11T04:49:56;29.80;;;13.00;;
70487;SDS011;57976;48.174;16.370;2024-01-11T04:52:00;38.80;;;16.10;;
70487;SDS011;57976;48.174;16.370;2024-01-11T04:54:05;34.70;;;14.90;;
70487;SDS011;57976;48.174;16.370;2024-01-11T04:56:10;30.50;;;14.30;;
70487;SDS011;57976;48.174;16.370;2024-01-11T04:58:17;32.70;;;13.40;;
70487;SDS011;57976;48.174;16.370;2024-01-11T05:00:21;31.60;;;13.90;;
70487;SDS011;57976;48.174;16.370;2024-01-11T05:02:26;33.70;;;13.50;;
70487;SDS011;57976;48.174;16.370;2024-01-11T05:04:34;38.40;;;15.80;;
70487;SDS011;57976;48.174;16.370;2024-01-11T05:06:39;31.60;;;13.80;;
70487;SDS011;57976;48.174;16.370;2024-01-11T05:08:47;31.10;;;13.20;;
70487;SDS011;57976;48.174;16.370;2024-01-11T05:10:53;33.00;;;14.60;;
70487;SDS011;57976;48.174;16.370;2024-01-11T05:12:57;33.00;;;14.70;;
70487;SDS011;57976;48.174;16.370;2024-01-11T05:15:02;31.30;;;13.50;;
70487;SDS011;57976;48.174;16.370;2024-01-11T05:17:08;34.30;;;14.60;;
70487;SDS011;57976;48.174;16.370;2024-01-11T05:19:15;34.50;;;15.50;;
70487;SDS011;57976;48.174;16.370;2024-01-11T05:21:20;34.10;;;15.30;;
70487;SDS011;57976;48.174;16.370;2024-01-11T05:23:26;38.90;;;16.50;;
70487;SDS011;57976;48.174;16.370;2024-01-11T05:25:30;35.60;;;15.10;;
70487;SDS011;57976;48.174;16.370;2024-01-11T05:27:38;34.70;;;14.20;;
70487;SDS011;57976;48.174;16.370;2024-01-11T05:29:42;37.20;;;15.60;;
70487;SDS011;57976;48.174;16.370;2024-01-11T05:31:50;33.70;;;14.80;;
70487;SDS011;57976;48.174;16.370;2024-01-11T05:33:55;37.20;;;15.30;;
70487;SDS011;57976;48.174;16.370;2024-01-11T05:36:01;32.20;;;14.30;;
70487;SDS011;57976;48.174;16.370;2024-01-11T05:38:06;36.50;;;15.60;;
70487;SDS011;57976;48.174;16.370;2024-01-11T05:40:11;38.00;;;15.60;;
70487;SDS011;57976;48.174;16.370;2024-01-11T05:42:16;31.50;;;14.50;;
70487;SDS011;57976;48.174;16.370;2024-01-11T05:44:26;35.10;;;15.50;;
70487;SDS011;57976;48.174;16.370;2024-01-11T05:46:31;34.30;;;14.60;;
70487;SDS011;57976;48.174;16.370;2024-01-11T05:48:39;39.70;;;16.30;;
70487;SDS011;57976;48.174;16.370;2024-01-11T05:50:44;38.60;;;15.40;;
70487;SDS011;57976;48.174;16.370;2024-01-11T05:52:49;34.10;;;14.70;;
70487;SDS011;57976;48.174;16.370;2024-01-11T05:54:54;39.00;;;15.00;;
70487;SDS011;57976;48.174;16.370;2024-01-11T05:57:05;37.10;;;16.30;;
70487;SDS011;57976;48.174;16.370;2024-01-11T05:59:10;36.40;;;15.40;;
70487;SDS011;57976;48.174;16.370;2024-01-11T06:01:15;33.70;;;15.10;;
70487;SDS011;57976;48.174;16.370;2024-01-11T06:03:19;37.60;;;15.90;;
70487;SDS011;57976;48.174;16.370;2024-01-11T06:05:27;38.80;;;15.70;;
70487;SDS011;57976;48.174;16.370;2024-01-11T06:07:32;35.10;;;15.60;;
70487;SDS011;57976;48.174;16.370;2024-01-11T06:09:38;37.90;;;15.50;;
70487;SDS011;57976;48.174;16.370;2024-01-11T06:11:42;38.40;;;15.90;;
70487;SDS011;57976;48.174;16.370;2024-01-11T06:13:47;37.70;;;16.50;;
70487;SDS011;57976;48.174;16.370;2024-01-11T06:15:55;36.90;;;15.20;;
70487;SDS011;57976;48.174;16.370;2024-01-11T06:18:03;36.60;;;15.90;;
70487;SDS011;57976;48.174;16.370;2024-01-11T06:20:14;39.30;;;15.60;;
70487;SDS011;57976;48.174;16.370;2024-01-11T06:22:18;33.80;;;15.10;;
70487;SDS011;57976;48.174;16.370;2024-01-11T06:24:23;39.30;;;15.60;;
70487;SDS011;57976;48.174;16.370;2024-01-11T06:26:28;35.10;;;15.90;;
70487;SDS011;57976;48.174;16.370;2024-01-11T06:28:33;35.70;;;16.40;;
70487;SDS011;57976;48.174;16.370;2024-01-11T06:30:38;37.50;;;16.20;;
70487;SDS011;57976;48.174;16.370;2024-01-11T06:32:43;39.70;;;15.50;;
70487;SDS011;57976;48.174;16.370;2024-01-11T06:34:48;34.70;;;15.40;;
70487;SDS011;57976;48.174;16.370;2024-01-11T06:36:53;38.70;;;14.60;;
70487;SDS011;57976;48.174;16.370;2024-01-11T06:39:01;34.00;;;15.10;;
70487;SDS011;57976;48.174;16.370;2024-01-11T06:41:05;36.90;;;16.00;;
70487;SDS011;57976;48.174;16.370;2024-01-11T06:43:10;35.50;;;15.40;;
70487;SDS011;57976;48.174;16.370;2024-01-11T06:45:15;35.80;;;15.10;;
70487;SDS011;57976;48.174;16.370;2024-01-11T06:47:20;35.60;;;15.60;;
70487;SDS011;57976;48.174;16.370;2024-01-11T06:49:25;35.90;;;16.10;;
70487;SDS011;57976;48.174;16.370;2024-01-11T06:51:30;39.30;;;17.10;;
70487;SDS011;57976;48.174;16.370;2024-01-11T06:53:34;34.50;;;15.00;;
70487;SDS011;57976;48.174;16.370;2024-01-11T06:55:40;39.80;;;16.90;;
70487;SDS011;57976;48.174;16.370;2024-01-11T06:57:47;36.80;;;16.00;;
70487;SDS011;57976;48.174;16.370;2024-01-11T06:59:52;40.30;;;16.60;;
70487;SDS011;57976;48.174;16.370;2024-01-11T07:01:57;36.00;;;15.70;;
70487;SDS011;57976;48.174;16.370;2024-01-11T07:04:02;36.00;;;14.90;;
70487;SDS011;57976;48.174;16.370;2024-01-11T07:06:07;35.40;;;14.90;;
70487;SDS011;57976;48.174;16.370;2024-01-11T07:08:12;39.50;;;17.80;;
70487;SDS011;57976;48.174;16.370;2024-01-11T07:10:21;37.20;;;16.00;;
70487;SDS011;57976;48.174;16.370;2024-01-11T07:12:26;42.40;;;18.20;;
70487;SDS011;57976;48.174;16.370;2024-01-11T07:14:30;43.60;;;17.50;;
70487;SDS011;57976;48.174;16.370;2024-01-11T07:16:35;36.20;;;15.80;;
70487;SDS011;57976;48.174;16.370;2024-01-11T07:18:40;37.20;;;16.50;;
70487;SDS011;57976;48.174;16.370;2024-01-11T07:20:44;36.70;;;15.90;;
70487;SDS011;57976;48.174;16.370;2024-01-11T07:22:49;38.70;;;16.30;;
70487;SDS011;57976;48.174;16.370;2024-01-11T07:24:54;38.00;;;16.00;;
70487;SDS011;57976;48.174;16.370;2024-01-11T07:26:59;42.20;;;16.30;;
70487;SDS011;57976;48.174;16.370;2024-01-11T07:29:04;37.30;;;16.70;;
70487;SDS011;57976;48.174;16.370;2024-01-11T07:31:09;44.00;;;18.40;;
70487;SDS011;57976;48.174;16.370;2024-01-11T07:33:14;39.40;;;16.30;;
70487;SDS011;57976;48.174;16.370;2024-01-11T07:35:19;39.40;;;16.80;;
70487;SDS011;57976;48.174;16.370;2024-01-11T07:37:24;38.40;;;16.50;;
70487;SDS011;57976;48.174;16.370;2024-01-11T07:39:29;38.80;;;15.40;;
70487;SDS011;57976;48.174;16.370;2024-01-11T07:41:36;37.00;;;16.20;;
70487;SDS011;57976;48.174;16.370;2024-01-11T07:43:42;38.70;;;16.50;;
70487;SDS011;57976;48.174;16.370;2024-01-11T07:45:56;35.50;;;15.80;;
70487;SDS011;57976;48.174;16.370;2024-01-11T07:48:01;39.40;;;16.90;;
70487;SDS011;57976;48.174;16.370;2024-01-11T07:50:07;35.30;;;15.70;;
70487;SDS011;57976;48.174;16.370;2024-01-11T07:52:12;39.10;;;16.30;;
70487;SDS011;57976;48.174;16.370;2024-01-11T07:54:20;38.50;;;16.20;;
70487;SDS011;57976;48.174;16.370;2024-01-11T07:56:25;35.20;;;15.70;;
70487;SDS011;57976;48.174;16.370;2024-01-11T07:58:33;34.40;;;15.20;;
70487;SDS011;57976;48.174;16.370;2024-01-11T08:00:38;37.80;;;16.40;;
70487;SDS011;57976;48.174;16.370;2024-01-11T08:02:43;40.20;;;16.70;;
70487;SDS011;57976;48.174;16.370;2024-01-11T08:04:48;39.30;;;16.80;;
70487;SDS011;57976;48.174;16.370;2024-01-11T08:06:53;36.50;;;16.60;;
70487;SDS011;57976;48.174;16.370;2024-01-11T08:08:58;35.10;;;16.10;;
70487;SDS011;57976;48.174;16.370;2024-01-11T08:11:02;35.70;;;16.80;;
70487;SDS011;57976;48.174;16.370;2024-01-11T08:13:08;34.90;;;15.80;;
70487;SDS011;57976;48.174;16.370;2024-01-11T08:15:13;39.30;;;16.80;;
70487;SDS011;57976;48.174;16.370;2024-01-11T08:17:18;40.00;;;17.20;;
70487;SDS011;57976;48.174;16.370;2024-01-11T08:19:26;40.20;;;16.70;;
70487;SDS011;57976;48.174;16.370;2024-01-11T08:21:34;38.60;;;15.90;;
70487;SDS011;57976;48.174;16.370;2024-01-11T08:23:39;38.70;;;16.90;;
70487;SDS011;57976;48.174;16.370;2024-01-11T08:25:44;38.80;;;17.50;;
70487;SDS011;57976;48.174;16.370;2024-01-11T08:27:49;38.10;;;16.70;;
70487;SDS011;57976;48.174;16.370;2024-01-11T08:29:53;37.00;;;15.60;;
70487;SDS011;57976;48.174;16.370;2024-01-11T08:32:02;37.20;;;15.80;;
70487;SDS011;57976;48.174;16.370;2024-01-11T08:34:25;37.10;;;16.00;;
70487;SDS011;57976;48.174;16.370;2024-01-11T08:36:31;38.30;;;15.90;;
70487;SDS011;57976;48.174;16.370;2024-01-11T08:38:37;36.70;;;16.70;;
70487;SDS011;57976;48.174;16.370;2024-01-11T08:40:41;40.50;;;17.60;;
70487;SDS011;57976;48.174;16.370;2024-01-11T08:42:47;42.20;;;18.60;;
70487;SDS011;57976;48.174;16.370;2024-01-11T08:44:51;40.90;;;17.30;;
70487;SDS011;57976;48.174;16.370;2024-01-11T08:46:56;39.80;;;16.60;;
70487;SDS011;57976;48.174;16.370;2024-01-11T08:49:01;41.50;;;18.00;;
70487;SDS011;57976;48.174;16.370;2024-01-11T08:51:07;40.30;;;17.80;;
70487;SDS011;57976;48.174;16.370;2024-01-11T08:53:11;40.80;;;17.50;;
70487;SDS011;57976;48.174;16.370;2024-01-11T08:55:16;43.80;;;18.00;;
70487;SDS011;57976;48.174;16.370;2024-01-11T08:57:21;36.60;;;16.00;;
70487;SDS011;57976;48.174;16.370;2024-01-11T08:59:25;37.00;;;16.50;;
70487;SDS011;57976;48.174;16.370;2024-01-11T09:01:30;40.60;;;17.90;;
70487;SDS011;57976;48.174;16.370;2024-01-11T09:03:36;35.40;;;16.20;;
70487;SDS011;57976;48.174;16.370;2024-01-11T09:05:41;38.50;;;17.20;;
70487;SDS011;57976;48.174;16.370;2024-01-11T09:07:46;39.80;;;17.10;;
70487;SDS011;57976;48.174;16.370;2024-01-11T09:09:53;37.60;;;16.60;;
70487;SDS011;57976;48.174;16.370;2024-01-11T09:11:59;37.50;;;17.10;;
70487;SDS011;57976;48.174;16.370;2024-01-11T09:14:05;40.70;;;18.00;;
70487;SDS011;57976;48.174;16.370;2024-01-11T09:16:13;37.50;;;17.20;;
70487;SDS011;57976;48.174;16.370;2024-01-11T09:18:19;41.80;;;17.00;;
70487;SDS011;57976;48.174;16.370;2024-01-11T09:20:24;39.60;;;17.40;;
70487;SDS011;57976;48.174;16.370;2024-01-11T09:22:29;39.70;;;17.50;;
70487;SDS011;57976;48.174;16.370;2024-01-11T09:24:34;39.80;;;17.40;;
70487;SDS011;57976;48.174;16.370;2024-01-11T09:26:42;36.20;;;15.90;;
70487;SDS011;57976;48.174;16.370;2024-01-11T09:28:49;41.80;;;18.60;;
70487;SDS011;57976;48.174;16.370;2024-01-11T09:30:55;39.30;;;17.50;;
70487;SDS011;57976;48.174;16.370;2024-01-11T09:32:59;35.90;;;16.10;;
70487;SDS011;57976;48.174;16.370;2024-01-11T09:35:05;37.00;;;17.10;;
70487;SDS011;57976;48.174;16.370;2024-01-11T09:37:12;38.90;;;17.10;;
70487;SDS011;57976;48.174;16.370;2024-01-11T09:39:17;39.40;;;17.40;;
70487;SDS011;57976;48.174;16.370;2024-01-11T09:41:22;36.90;;;15.60;;
70487;SDS011;57976;48.174;16.370;2024-01-11T09:43:27;38.50;;;17.50;;
70487;SDS011;57976;48.174;16.370;2024-01-11T09:45:32;38.70;;;16.80;;
70487;SDS011;57976;48.174;16.370;2024-01-11T09:47:37;37.70;;;16.90;;
70487;SDS011;57976;48.174;16.370;2024-01-11T09:49:43;35.40;;;16.60;;
70487;SDS011;57976;48.174;16.370;2024-01-11T09:51:54;32.70;;;15.20;;
70487;SDS011;57976;48.174;16.370;2024-01-11T09:54:00;37.10;;;16.90;;
70487;SDS011;57976;48.174;16.370;2024-01-11T09:56:07;37.20;;;15.40;;
70487;SDS011;57976;48.174;16.370;2024-01-11T09:58:13;36.20;;;15.90;;
70487;SDS011;57976;48.174;16.370;2024-01-11T10:00:19;40.80;;;18.50;;
70487;SDS011;57976;48.174;16.370;2024-01-11T10:02:25;37.60;;;16.40;;
70487;SDS011;57976;48.174;16.370;2024-01-11T10:04:30;37.20;;;16.50;;
70487;SDS011;57976;48.174;16.370;2024-01-11T10:06:35;35.50;;;15.90;;
70487;SDS011;57976;48.174;16.370;2024-01-11T10:08:43;39.70;;;18.20;;
70487;SDS011;57976;48.174;16.370;2024-01-11T10:10:48;37.70;;;16.90;;
70487;SDS011;57976;48.174;16.370;2024-01-11T10:12:52;39.00;;;18.10;;
70487;SDS011;57976;48.174;16.370;2024-01-11T10:14:58;39.00;;;18.30;;
70487;SDS011;57976;48.174;16.370;2024-01-11T10:17:10;38.00;;;16.10;;
70487;SDS011;57976;48.174;16.370;2024-01-11T10:19:22;37.20;;;16.80;;
70487;SDS011;57976;48.174;16.370;2024-01-11T10:21:27;34.40;;;16.10;;
70487;SDS011;57976;48.174;16.370;2024-01-11T10:23:34;39.10;;;18.20;;
70487;SDS011;57976;48.174;16.370;2024-01-11T10:25:39;39.90;;;17.20;;
70487;SDS011;57976;48.174;16.370;2024-01-11T10:27:45;38.80;;;16.50;;
70487;SDS011;57976;48.174;16.370;2024-01-11T10:29:50;38.50;;;18.90;;
70487;SDS011;57976;48.174;16.370;2024-01-11T10:31:56;36.60;;;18.30;;
70487;SDS011;57976;48.174;16.370;2024-01-11T10:34:00;40.10;;;19.00;;
70487;SDS011;57976;48.174;16.370;2024-01-11T10:36:07;40.00;;;18.10;;
70487;SDS011;57976;48.174;16.370;2024-01-11T10:38:14;38.00;;;17.30;;
70487;SDS011;57976;48.174;16.370;2024-01-11T10:40:20;38.80;;;17.40;;
70487;SDS011;57976;48.174;16.370;2024-01-11T10:42:25;43.80;;;19.00;;
70487;SDS011;57976;48.174;16.370;2024-01-11T10:44:34;39.30;;;17.40;;
70487;SDS011;57976;48.174;16.370;2024-01-11T10:46:44;37.80;;;16.80;;
70487;SDS011;57976;48.174;16.370;2024-01-11T10:48:50;39.90;;;17.60;;
70487;SDS011;57976;48.174;16.370;2024-01-11T10:51:00;37.00;;;16.80;;
70487;SDS011;57976;48.174;16.370;2024-01-11T10:53:12;36.80;;;16.70;;
70487;SDS011;57976;48.174;16.370;2024-01-11T10:55:23;40.00;;;17.30;;
70487;SDS011;57976;48.174;16.370;2024-01-11T10:57:35;38.10;;;16.90;;
70487;SDS011;57976;48.174;16.370;2024-01-11T10:59:40;39.00;;;16.70;;
70487;SDS011;57976;48.174;16.370;2024-01-11T11:01:47;33.60;;;15.70;;
70487;SDS011;57976;48.174;16.370;2024-01-11T11:03:52;40.20;;;18.00;;
70487;SDS011;57976;48.174;16.370;2024-01-11T11:05:57;33.70;;;16.30;;
70487;SDS011;57976;48.174;16.370;2024-01-11T11:08:06;39.80;;;17.30;;
70487;SDS011;57976;48.174;16.370;2024-01-11T11:10:12;36.70;;;17.80;;
70487;SDS011;57976;48.174;16.370;2024-01-11T11:12:18;36.90;;;16.60;;
70487;SDS011;57976;48.174;16.370;2024-01-11T11:14:24;37.80;;;15.90;;
70487;SDS011;57976;48.174;16.370;2024-01-11T11:16:31;35.60;;;16.50;;
70487;SDS011;57976;48.174;16.370;2024-01-11T11:18:36;36.10;;;17.10;;
70487;SDS011;57976;48.174;16.370;2024-01-11T11:20:41;35.60;;;15.90;;
70487;SDS011;57976;48.174;16.370;2024-01-11T11:22:49;34.90;;;16.30;;
70487;SDS011;57976;48.174;16.370;2024-01-11T11:25:07;32.70;;;15.30;;
70487;SDS011;57976;48.174;16.370;2024-01-11T11:27:27;37.10;;;16.60;;
70487;SDS011;57976;48.174;16.370;2024-01-11T11:29:33;36.70;;;16.20;;
70487;SDS011;57976;48.174;16.370;2024-01-11T11:31:38;34.50;;;16.00;;
70487;SDS011;57976;48.174;16.370;2024-01-11T11:33:44;36.10;;;17.80;;
70487;SDS011;57976;48.174;16.370;2024-01-11T11:35:57;39.10;;;16.80;;
70487;SDS011;57976;48.174;16.370;2024-01-11T11:38:02;33.80;;;15.10;;
70487;SDS011;57976;48.174;16.370;2024-01-11T11:40:09;34.10;;;15.70;;
70487;SDS011;57976;48.174;16.370;2024-01-11T11:42:16;34.80;;;16.20;;
70487;SDS011;57976;48.174;16.370;2024-01-11T11:44:21;34.50;;;16.30;;
70487;SDS011;57976;48.174;16.370;2024-01-11T11:46:27;37.40;;;16.60;;
70487;SDS011;57976;48.174;16.370;2024-01-11T11:51:02;33.30;;;15.90;;
70487;SDS011;57976;48.174;16.370;2024-01-11T11:53:08;35.80;;;16.50;;
70487;SDS011;57976;48.174;16.370;2024-01-11T11:55:17;38.00;;;17.60;;
70487;SDS011;57976;48.174;16.370;2024-01-11T11:57:23;34.00;;;16.50;;
70487;SDS011;57976;48.174;16.370;2024-01-11T11:59:31;35.10;;;17.00;;
70487;SDS011;57976;48.174;16.370;2024-01-11T12:01:38;37.30;;;16.50;;
70487;SDS011;57976;48.174;16.370;2024-01-11T12:03:43;35.50;;;17.20;;
70487;SDS011;57976;48.174;16.370;2024-01-11T12:05:48;33.70;;;16.20;;
70487;SDS011;57976;48.174;16.370;2024-01-11T12:07:54;32.10;;;15.90;;